sensor_id;sensor_type;location;lat;lon;timestamp;P1;durP1;ratioP1;P2;durP2;ratioP2
35602;SDS011;21725;50.836;4.368;2022-09-27T00:00:32;5.95;;;1.92;;
35602;SDS011;21725;50.836;4.368;2022-09-27T00:03:00;9.73;;;2.33;;
35602;SDS011;21725;50.836;4.368;2022-09-27T00:05:26;3.47;;;1.70;;
35602;SDS011;21725;50.836;4.368;2022-09-27T00:07:52;4.20;;;2.38;;
35602;SDS011;21725;50.836;4.368;2022-09-27T00:10:18;5.43;;;2.08;;
35602;SDS011;21725;50.836;4.368;2022-09-27T00:12:43;5.80;;;2.17;;
35602;SDS011;21725;50.836;4.368;2022-09-27T00:15:09;5.15;;;1.92;;
35602;SDS011;21725;50.836;4.368;2022-09-27T00:17:36;5.97;;;2.15;;
35602;SDS011;21725;50.836;4.368;2022-09-27T00:20:05;10.35;;;1.92;;
35602;SDS011;21725;50.836;4.368;2022-09-27T00:22:32;4.13;;;1.60;;
35602;SDS011;21725;50.836;4.368;2022-09-27T00:25:00;5.28;;;2.50;;
35602;SDS011;21725;50.836;4.368;2022-09-27T00:27:30;6.90;;;2.45;;
35602;SDS011;21725;50.836;4.368;2022-09-27T00:29:58;5.07;;;1.77;;
35602;SDS011;21725;50.836;4.368;2022-09-27T00:32:24;7.40;;;2.33;;
35602;SDS011;21725;50.836;4.368;2022-09-27T00:34:50;8.70;;;3.40;;
35602;SDS011;21725;50.836;4.368;2022-09-27T00:37:15;5.90;;;2.08;;
35602;SDS011;21725;50.836;4.368;2022-09-27T00:39:43;6.00;;;2.65;;
35602;SDS011;21725;50.836;4.368;2022-09-27T00:42:09;5.70;;;1.85;;
35602;SDS011;21725;50.836;4.368;2022-09-27T00:47:24;4.50;;;1.80;;
35602;SDS011;21725;50.836;4.368;2022-09-27T00:54:55;5.40;;;1.52;;
35602;SDS011;21725;50.836;4.368;2022-09-27T00:57:26;5.60;;;1.50;;
35602;SDS011;21725;50.836;4.368;2022-09-27T01:00:04;5.38;;;2.00;;
35602;SDS011;21725;50.836;4.368;2022-09-27T01:02:33;4.10;;;1.40;;
35602;SDS011;21725;50.836;4.368;2022-09-27T01:05:04;7.60;;;1.80;;
35602;SDS011;21725;50.836;4.368;2022-09-27T01:07:32;5.05;;;1.52;;
35602;SDS011;21725;50.836;4.368;2022-09-27T01:09:58;5.25;;;2.03;;
35602;SDS011;21725;50.836;4.368;2022-09-27T01:15:41;4.75;;;1.80;;
35602;SDS011;21725;50.836;4.368;2022-09-27T01:18:37;5.85;;;1.70;;
35602;SDS011;21725;50.836;4.368;2022-09-27T01:21:27;2.50;;;1.50;;
35602;SDS011;21725;50.836;4.368;2022-09-27T01:24:01;5.07;;;1.95;;
35602;SDS011;21725;50.836;4.368;2022-09-27T01:32:09;4.38;;;2.15;;
35602;SDS011;21725;50.836;4.368;2022-09-27T01:35:13;3.00;;;1.40;;
35602;SDS011;21725;50.836;4.368;2022-09-27T01:37:55;3.83;;;1.40;;
35602;SDS011;21725;50.836;4.368;2022-09-27T01:40:42;4.90;;;1.80;;
35602;SDS011;21725;50.836;4.368;2022-09-27T01:48:59;4.53;;;1.90;;
35602;SDS011;21725;50.836;4.368;2022-09-27T01:51:36;7.95;;;2.10;;
35602;SDS011;21725;50.836;4.368;2022-09-27T01:54:11;5.10;;;1.73;;
35602;SDS011;21725;50.836;4.368;2022-09-27T01:56:52;3.50;;;2.03;;
35602;SDS011;21725;50.836;4.368;2022-09-27T01:59:22;4.85;;;1.75;;
35602;SDS011;21725;50.836;4.368;2022-09-27T02:01:55;5.10;;;1.90;;
35602;SDS011;21725;50.836;4.368;2022-09-27T02:04:32;6.25;;;1.80;;
35602;SDS011;21725;50.836;4.368;2022-09-27T02:07:10;6.95;;;1.83;;
35602;SDS011;21725;50.836;4.368;2022-09-27T02:09:44;6.93;;;2.78;;
35602;SDS011;21725;50.836;4.368;2022-09-27T02:12:18;4.47;;;1.80;;
35602;SDS011;21725;50.836;4.368;2022-09-27T02:14:58;4.60;;;1.80;;
35602;SDS011;21725;50.836;4.368;2022-09-27T02:17:40;5.38;;;2.25;;
35602;SDS011;21725;50.836;4.368;2022-09-27T02:20:28;8.02;;;2.17;;
35602;SDS011;21725;50.836;4.368;2022-09-27T02:23:03;3.78;;;1.77;;
35602;SDS011;21725;50.836;4.368;2022-09-27T02:31:08;5.32;;;2.30;;
35602;SDS011;21725;50.836;4.368;2022-09-27T02:36:15;6.15;;;1.83;;
35602;SDS011;21725;50.836;4.368;2022-09-27T02:38:41;8.73;;;2.35;;
35602;SDS011;21725;50.836;4.368;2022-09-27T02:41:15;8.13;;;2.20;;
35602;SDS011;21725;50.836;4.368;2022-09-27T02:43:46;6.03;;;2.15;;
35602;SDS011;21725;50.836;4.368;2022-09-27T02:46:30;6.53;;;2.22;;
35602;SDS011;21725;50.836;4.368;2022-09-27T02:55:13;3.53;;;1.70;;
35602;SDS011;21725;50.836;4.368;2022-09-27T03:00:44;5.38;;;1.55;;
35602;SDS011;21725;50.836;4.368;2022-09-27T03:05:53;7.03;;;2.88;;
35602;SDS011;21725;50.836;4.368;2022-09-27T03:08:31;4.65;;;2.17;;
35602;SDS011;21725;50.836;4.368;2022-09-27T03:10:59;5.18;;;1.85;;
35602;SDS011;21725;50.836;4.368;2022-09-27T03:13:25;6.30;;;2.25;;
35602;SDS011;21725;50.836;4.368;2022-09-27T03:15:51;7.28;;;2.20;;
35602;SDS011;21725;50.836;4.368;2022-09-27T03:18:18;9.90;;;2.17;;
35602;SDS011;21725;50.836;4.368;2022-09-27T03:20:44;4.80;;;1.77;;
35602;SDS011;21725;50.836;4.368;2022-09-27T03:23:10;8.70;;;2.05;;
35602;SDS011;21725;50.836;4.368;2022-09-27T03:25:35;5.57;;;2.67;;
35602;SDS011;21725;50.836;4.368;2022-09-27T03:28:01;7.05;;;2.08;;
35602;SDS011;21725;50.836;4.368;2022-09-27T03:30:29;5.85;;;1.92;;
35602;SDS011;21725;50.836;4.368;2022-09-27T03:32:54;5.85;;;1.70;;
35602;SDS011;21725;50.836;4.368;2022-09-27T03:35:20;6.72;;;2.50;;
35602;SDS011;21725;50.836;4.368;2022-09-27T03:37:46;3.58;;;2.00;;
35602;SDS011;21725;50.836;4.368;2022-09-27T03:40:12;5.63;;;1.70;;
35602;SDS011;21725;50.836;4.368;2022-09-27T03:42:40;6.10;;;2.33;;
35602;SDS011;21725;50.836;4.368;2022-09-27T03:45:15;5.95;;;1.60;;
35602;SDS011;21725;50.836;4.368;2022-09-27T03:47:41;7.55;;;2.00;;
35602;SDS011;21725;50.836;4.368;2022-09-27T03:50:07;6.05;;;1.88;;
35602;SDS011;21725;50.836;4.368;2022-09-27T03:52:35;5.10;;;2.58;;
35602;SDS011;21725;50.836;4.368;2022-09-27T03:55:01;4.03;;;1.60;;
35602;SDS011;21725;50.836;4.368;2022-09-27T03:57:29;5.32;;;2.55;;
35602;SDS011;21725;50.836;4.368;2022-09-27T03:59:57;7.22;;;1.80;;
35602;SDS011;21725;50.836;4.368;2022-09-27T04:02:23;6.00;;;2.60;;
35602;SDS011;21725;50.836;4.368;2022-09-27T04:04:50;5.85;;;2.70;;
35602;SDS011;21725;50.836;4.368;2022-09-27T04:07:18;5.47;;;2.15;;
35602;SDS011;21725;50.836;4.368;2022-09-27T04:09:47;3.90;;;2.13;;
35602;SDS011;21725;50.836;4.368;2022-09-27T04:12:13;4.90;;;2.40;;
35602;SDS011;21725;50.836;4.368;2022-09-27T04:14:38;7.28;;;3.60;;
35602;SDS011;21725;50.836;4.368;2022-09-27T04:17:04;9.80;;;3.47;;
35602;SDS011;21725;50.836;4.368;2022-09-27T04:19:29;6.95;;;2.40;;
35602;SDS011;21725;50.836;4.368;2022-09-27T04:21:55;3.45;;;2.03;;
35602;SDS011;21725;50.836;4.368;2022-09-27T04:24:23;5.85;;;2.03;;
35602;SDS011;21725;50.836;4.368;2022-09-27T04:26:51;8.50;;;3.10;;
35602;SDS011;21725;50.836;4.368;2022-09-27T04:29:17;7.27;;;3.00;;
35602;SDS011;21725;50.836;4.368;2022-09-27T04:31:45;4.80;;;2.30;;
35602;SDS011;21725;50.836;4.368;2022-09-27T04:34:11;3.55;;;2.05;;
35602;SDS011;21725;50.836;4.368;2022-09-27T04:36:37;6.85;;;2.65;;
35602;SDS011;21725;50.836;4.368;2022-09-27T04:39:08;5.63;;;2.20;;
35602;SDS011;21725;50.836;4.368;2022-09-27T04:41:34;9.10;;;3.70;;
35602;SDS011;21725;50.836;4.368;2022-09-27T04:44:00;5.95;;;3.15;;
35602;SDS011;21725;50.836;4.368;2022-09-27T04:46:28;8.85;;;3.67;;
35602;SDS011;21725;50.836;4.368;2022-09-27T04:49:00;5.70;;;3.25;;
35602;SDS011;21725;50.836;4.368;2022-09-27T04:51:26;6.85;;;3.55;;
35602;SDS011;21725;50.836;4.368;2022-09-27T04:53:52;7.53;;;3.28;;
35602;SDS011;21725;50.836;4.368;2022-09-27T04:56:22;8.57;;;3.67;;
35602;SDS011;21725;50.836;4.368;2022-09-27T04:58:51;6.93;;;3.70;;
35602;SDS011;21725;50.836;4.368;2022-09-27T05:01:17;6.95;;;3.88;;
35602;SDS011;21725;50.836;4.368;2022-09-27T05:03:43;6.15;;;3.60;;
35602;SDS011;21725;50.836;4.368;2022-09-27T05:06:09;4.82;;;3.00;;
35602;SDS011;21725;50.836;4.368;2022-09-27T05:08:34;6.03;;;2.70;;
35602;SDS011;21725;50.836;4.368;2022-09-27T05:11:00;6.70;;;3.60;;
35602;SDS011;21725;50.836;4.368;2022-09-27T05:13:28;5.85;;;2.67;;
35602;SDS011;21725;50.836;4.368;2022-09-27T05:16:00;5.78;;;3.17;;
35602;SDS011;21725;50.836;4.368;2022-09-27T05:18:27;5.82;;;3.00;;
35602;SDS011;21725;50.836;4.368;2022-09-27T05:20:52;5.05;;;2.92;;
35602;SDS011;21725;50.836;4.368;2022-09-27T05:23:18;4.25;;;2.33;;
35602;SDS011;21725;50.836;4.368;2022-09-27T05:25:44;7.03;;;2.90;;
35602;SDS011;21725;50.836;4.368;2022-09-27T05:28:12;6.53;;;3.40;;
35602;SDS011;21725;50.836;4.368;2022-09-27T05:30:37;5.97;;;3.08;;
35602;SDS011;21725;50.836;4.368;2022-09-27T05:33:05;5.97;;;2.88;;
35602;SDS011;21725;50.836;4.368;2022-09-27T05:35:34;6.28;;;3.17;;
35602;SDS011;21725;50.836;4.368;2022-09-27T05:38:02;5.07;;;2.83;;
35602;SDS011;21725;50.836;4.368;2022-09-27T05:40:36;6.00;;;3.65;;
35602;SDS011;21725;50.836;4.368;2022-09-27T05:43:02;5.47;;;3.10;;
35602;SDS011;21725;50.836;4.368;2022-09-27T05:45:30;8.98;;;3.50;;
35602;SDS011;21725;50.836;4.368;2022-09-27T05:47:58;4.25;;;2.97;;
35602;SDS011;21725;50.836;4.368;2022-09-27T05:50:38;5.85;;;2.38;;
35602;SDS011;21725;50.836;4.368;2022-09-27T05:53:04;8.07;;;3.05;;
35602;SDS011;21725;50.836;4.368;2022-09-27T05:55:35;4.10;;;2.63;;
35602;SDS011;21725;50.836;4.368;2022-09-27T05:58:02;4.68;;;2.35;;
35602;SDS011;21725;50.836;4.368;2022-09-27T06:00:38;5.18;;;2.53;;
35602;SDS011;21725;50.836;4.368;2022-09-27T06:03:07;3.70;;;2.23;;
35602;SDS011;21725;50.836;4.368;2022-09-27T06:05:36;5.00;;;2.50;;
35602;SDS011;21725;50.836;4.368;2022-09-27T06:08:04;5.75;;;2.67;;
35602;SDS011;21725;50.836;4.368;2022-09-27T06:10:32;4.57;;;2.93;;
35602;SDS011;21725;50.836;4.368;2022-09-27T06:12:58;6.20;;;2.50;;
35602;SDS011;21725;50.836;4.368;2022-09-27T06:15:30;5.40;;;2.72;;
35602;SDS011;21725;50.836;4.368;2022-09-27T06:17:56;5.65;;;2.50;;
35602;SDS011;21725;50.836;4.368;2022-09-27T06:22:51;4.68;;;2.60;;
35602;SDS011;21725;50.836;4.368;2022-09-27T06:25:22;8.85;;;2.47;;
35602;SDS011;21725;50.836;4.368;2022-09-27T06:27:48;5.57;;;2.75;;
35602;SDS011;21725;50.836;4.368;2022-09-27T06:30:14;6.78;;;2.63;;
35602;SDS011;21725;50.836;4.368;2022-09-27T06:32:39;4.60;;;2.45;;
35602;SDS011;21725;50.836;4.368;2022-09-27T06:35:11;6.10;;;2.88;;
35602;SDS011;21725;50.836;4.368;2022-09-27T06:37:36;6.35;;;2.60;;
35602;SDS011;21725;50.836;4.368;2022-09-27T06:40:02;6.00;;;3.33;;
35602;SDS011;21725;50.836;4.368;2022-09-27T06:42:29;5.80;;;2.90;;
35602;SDS011;21725;50.836;4.368;2022-09-27T06:45:00;6.38;;;3.28;;
35602;SDS011;21725;50.836;4.368;2022-09-27T06:47:28;8.27;;;2.80;;
35602;SDS011;21725;50.836;4.368;2022-09-27T06:49:59;6.03;;;3.00;;
35602;SDS011;21725;50.836;4.368;2022-09-27T06:52:29;6.28;;;2.92;;
35602;SDS011;21725;50.836;4.368;2022-09-27T06:54:59;7.40;;;3.10;;
35602;SDS011;21725;50.836;4.368;2022-09-27T06:57:25;6.47;;;2.60;;
35602;SDS011;21725;50.836;4.368;2022-09-27T07:00:10;5.93;;;2.75;;
35602;SDS011;21725;50.836;4.368;2022-09-27T07:02:51;10.77;;;4.68;;
35602;SDS011;21725;50.836;4.368;2022-09-27T07:05:20;7.68;;;3.65;;
35602;SDS011;21725;50.836;4.368;2022-09-27T07:07:48;5.05;;;3.05;;
35602;SDS011;21725;50.836;4.368;2022-09-27T07:10:18;8.85;;;3.10;;
35602;SDS011;21725;50.836;4.368;2022-09-27T07:12:44;5.20;;;3.63;;
35602;SDS011;21725;50.836;4.368;2022-09-27T07:15:15;10.23;;;3.38;;
35602;SDS011;21725;50.836;4.368;2022-09-27T07:17:43;5.95;;;3.10;;
35602;SDS011;21725;50.836;4.368;2022-09-27T07:20:08;9.77;;;2.95;;
35602;SDS011;21725;50.836;4.368;2022-09-27T07:22:40;9.63;;;2.75;;
35602;SDS011;21725;50.836;4.368;2022-09-27T07:25:17;5.88;;;2.88;;
35602;SDS011;21725;50.836;4.368;2022-09-27T07:28:01;8.35;;;3.60;;
35602;SDS011;21725;50.836;4.368;2022-09-27T07:30:31;7.15;;;3.25;;
35602;SDS011;21725;50.836;4.368;2022-09-27T07:32:59;8.70;;;3.13;;
35602;SDS011;21725;50.836;4.368;2022-09-27T07:35:26;5.60;;;2.85;;
35602;SDS011;21725;50.836;4.368;2022-09-27T07:38:05;12.45;;;2.90;;
35602;SDS011;21725;50.836;4.368;2022-09-27T07:40:39;8.20;;;4.10;;
35602;SDS011;21725;50.836;4.368;2022-09-27T07:43:08;9.27;;;3.63;;
35602;SDS011;21725;50.836;4.368;2022-09-27T07:45:37;9.98;;;3.20;;
35602;SDS011;21725;50.836;4.368;2022-09-27T07:48:05;8.25;;;2.95;;
35602;SDS011;21725;50.836;4.368;2022-09-27T07:52:58;8.45;;;2.90;;
35602;SDS011;21725;50.836;4.368;2022-09-27T07:55:25;8.55;;;3.38;;
35602;SDS011;21725;50.836;4.368;2022-09-27T07:57:51;9.70;;;4.15;;
35602;SDS011;21725;50.836;4.368;2022-09-27T08:00:28;5.68;;;2.92;;
35602;SDS011;21725;50.836;4.368;2022-09-27T08:02:53;6.40;;;2.95;;
35602;SDS011;21725;50.836;4.368;2022-09-27T08:05:21;12.05;;;4.35;;
35602;SDS011;21725;50.836;4.368;2022-09-27T08:07:57;9.18;;;2.90;;
35602;SDS011;21725;50.836;4.368;2022-09-27T08:10:23;8.88;;;3.25;;
35602;SDS011;21725;50.836;4.368;2022-09-27T08:12:55;9.18;;;3.35;;
35602;SDS011;21725;50.836;4.368;2022-09-27T08:15:30;4.68;;;2.92;;
35602;SDS011;21725;50.836;4.368;2022-09-27T08:17:57;3.55;;;2.40;;
35602;SDS011;21725;50.836;4.368;2022-09-27T08:20:25;4.88;;;2.72;;
35602;SDS011;21725;50.836;4.368;2022-09-27T08:22:58;5.07;;;2.47;;
35602;SDS011;21725;50.836;4.368;2022-09-27T08:25:26;5.00;;;2.83;;
35602;SDS011;21725;50.836;4.368;2022-09-27T08:27:57;5.55;;;2.55;;
35602;SDS011;21725;50.836;4.368;2022-09-27T08:30:35;4.40;;;2.20;;
35602;SDS011;21725;50.836;4.368;2022-09-27T08:33:03;6.22;;;2.65;;
35602;SDS011;21725;50.836;4.368;2022-09-27T08:35:31;4.60;;;2.53;;
35602;SDS011;21725;50.836;4.368;2022-09-27T08:38:00;7.43;;;3.20;;
35602;SDS011;21725;50.836;4.368;2022-09-27T08:40:52;3.15;;;2.15;;
35602;SDS011;21725;50.836;4.368;2022-09-27T08:43:31;7.38;;;2.40;;
35602;SDS011;21725;50.836;4.368;2022-09-27T08:46:25;7.13;;;2.10;;
35602;SDS011;21725;50.836;4.368;2022-09-27T08:49:18;5.22;;;2.50;;
35602;SDS011;21725;50.836;4.368;2022-09-27T08:51:50;4.30;;;2.00;;
35602;SDS011;21725;50.836;4.368;2022-09-27T08:54:24;3.97;;;2.17;;
35602;SDS011;21725;50.836;4.368;2022-09-27T08:56:58;7.45;;;2.60;;
35602;SDS011;21725;50.836;4.368;2022-09-27T08:59:39;3.97;;;2.25;;
35602;SDS011;21725;50.836;4.368;2022-09-27T09:02:16;5.57;;;2.13;;
35602;SDS011;21725;50.836;4.368;2022-09-27T09:04:49;5.72;;;2.67;;
35602;SDS011;21725;50.836;4.368;2022-09-27T09:19:16;7.68;;;2.45;;
35602;SDS011;21725;50.836;4.368;2022-09-27T09:24:30;6.68;;;1.85;;
35602;SDS011;21725;50.836;4.368;2022-09-27T09:27:24;6.22;;;2.50;;
35602;SDS011;21725;50.836;4.368;2022-09-27T09:30:00;5.50;;;2.33;;
35602;SDS011;21725;50.836;4.368;2022-09-27T09:35:41;8.27;;;2.50;;
35602;SDS011;21725;50.836;4.368;2022-09-27T09:38:22;5.03;;;1.67;;
35602;SDS011;21725;50.836;4.368;2022-09-27T09:41:32;4.95;;;1.92;;
35602;SDS011;21725;50.836;4.368;2022-09-27T09:44:13;5.22;;;2.38;;
35602;SDS011;21725;50.836;4.368;2022-09-27T09:47:07;4.63;;;2.42;;
35602;SDS011;21725;50.836;4.368;2022-09-27T09:49:43;10.10;;;2.58;;
35602;SDS011;21725;50.836;4.368;2022-09-27T09:52:21;9.70;;;2.28;;
35602;SDS011;21725;50.836;4.368;2022-09-27T09:54:54;5.55;;;2.40;;
35602;SDS011;21725;50.836;4.368;2022-09-27T09:57:27;5.95;;;2.45;;
35602;SDS011;21725;50.836;4.368;2022-09-27T10:00:06;6.53;;;2.63;;
35602;SDS011;21725;50.836;4.368;2022-09-27T10:02:44;6.22;;;2.40;;
35602;SDS011;21725;50.836;4.368;2022-09-27T10:05:19;7.72;;;2.70;;
35602;SDS011;21725;50.836;4.368;2022-09-27T10:07:47;19.88;;;2.97;;
35602;SDS011;21725;50.836;4.368;2022-09-27T10:10:15;7.97;;;3.10;;
35602;SDS011;21725;50.836;4.368;2022-09-27T10:12:42;7.65;;;2.40;;
35602;SDS011;21725;50.836;4.368;2022-09-27T10:15:13;6.30;;;2.58;;
35602;SDS011;21725;50.836;4.368;2022-09-27T10:17:50;9.30;;;2.58;;
35602;SDS011;21725;50.836;4.368;2022-09-27T10:23:10;7.85;;;2.90;;
35602;SDS011;21725;50.836;4.368;2022-09-27T10:28:25;7.60;;;2.40;;
35602;SDS011;21725;50.836;4.368;2022-09-27T10:31:07;7.95;;;2.45;;
35602;SDS011;21725;50.836;4.368;2022-09-27T10:33:39;10.07;;;3.22;;
35602;SDS011;21725;50.836;4.368;2022-09-27T10:36:26;9.18;;;3.15;;
35602;SDS011;21725;50.836;4.368;2022-09-27T10:38:57;7.18;;;2.90;;
35602;SDS011;21725;50.836;4.368;2022-09-27T10:46:48;16.65;;;3.95;;
35602;SDS011;21725;50.836;4.368;2022-09-27T10:49:20;10.68;;;4.00;;
35602;SDS011;21725;50.836;4.368;2022-09-27T10:51:56;9.40;;;2.70;;
35602;SDS011;21725;50.836;4.368;2022-09-27T10:57:51;8.13;;;3.55;;
35602;SDS011;21725;50.836;4.368;2022-09-27T11:00:21;9.68;;;3.20;;
35602;SDS011;21725;50.836;4.368;2022-09-27T11:02:51;7.38;;;3.13;;
35602;SDS011;21725;50.836;4.368;2022-09-27T11:07:55;7.47;;;3.92;;
35602;SDS011;21725;50.836;4.368;2022-09-27T11:10:31;6.57;;;2.63;;
35602;SDS011;21725;50.836;4.368;2022-09-27T11:25:13;6.40;;;2.30;;
35602;SDS011;21725;50.836;4.368;2022-09-27T11:28:21;13.52;;;4.05;;
35602;SDS011;21725;50.836;4.368;2022-09-27T11:34:12;11.40;;;2.95;;
35602;SDS011;21725;50.836;4.368;2022-09-27T11:40:12;5.22;;;2.67;;
35602;SDS011;21725;50.836;4.368;2022-09-27T11:45:22;5.32;;;2.10;;
35602;SDS011;21725;50.836;4.368;2022-09-27T11:48:27;9.95;;;2.95;;
35602;SDS011;21725;50.836;4.368;2022-09-27T12:02:18;2.92;;;1.70;;
35602;SDS011;21725;50.836;4.368;2022-09-27T12:11:26;8.65;;;3.05;;
35602;SDS011;21725;50.836;4.368;2022-09-27T12:14:08;7.78;;;2.30;;
35602;SDS011;21725;50.836;4.368;2022-09-27T12:16:36;6.75;;;2.08;;
35602;SDS011;21725;50.836;4.368;2022-09-27T12:25:47;6.65;;;1.55;;
35602;SDS011;21725;50.836;4.368;2022-09-27T12:58:32;12.90;;;4.78;;
35602;SDS011;21725;50.836;4.368;2022-09-27T13:04:23;5.65;;;2.67;;
35602;SDS011;21725;50.836;4.368;2022-09-27T13:07:31;3.22;;;1.55;;
35602;SDS011;21725;50.836;4.368;2022-09-27T13:10:34;7.40;;;2.42;;
35602;SDS011;21725;50.836;4.368;2022-09-27T13:13:18;7.90;;;2.22;;
35602;SDS011;21725;50.836;4.368;2022-09-27T13:16:26;7.03;;;2.08;;
35602;SDS011;21725;50.836;4.368;2022-09-27T13:25:57;5.30;;;2.10;;
35602;SDS011;21725;50.836;4.368;2022-09-27T15:03:30;8.60;;;2.30;;
35602;SDS011;21725;50.836;4.368;2022-09-27T15:09:01;8.45;;;2.95;;
35602;SDS011;21725;50.836;4.368;2022-09-27T15:11:57;12.10;;;2.60;;
35602;SDS011;21725;50.836;4.368;2022-09-27T15:35:52;4.38;;;2.08;;
35602;SDS011;21725;50.836;4.368;2022-09-27T15:38:47;5.00;;;2.20;;
35602;SDS011;21725;50.836;4.368;2022-09-27T15:41:58;7.60;;;2.63;;
35602;SDS011;21725;50.836;4.368;2022-09-27T15:44:37;10.35;;;2.53;;
35602;SDS011;21725;50.836;4.368;2022-09-27T15:53:01;4.60;;;2.28;;
35602;SDS011;21725;50.836;4.368;2022-09-27T15:55:34;6.55;;;2.85;;
35602;SDS011;21725;50.836;4.368;2022-09-27T15:58:19;4.75;;;2.35;;
35602;SDS011;21725;50.836;4.368;2022-09-27T16:03:24;4.90;;;1.88;;
35602;SDS011;21725;50.836;4.368;2022-09-27T16:05:56;5.80;;;2.20;;
35602;SDS011;21725;50.836;4.368;2022-09-27T16:08:24;11.77;;;3.08;;
35602;SDS011;21725;50.836;4.368;2022-09-27T16:14:12;8.15;;;3.03;;
35602;SDS011;21725;50.836;4.368;2022-09-27T16:16:46;4.78;;;2.30;;
35602;SDS011;21725;50.836;4.368;2022-09-27T16:19:16;4.88;;;2.53;;
35602;SDS011;21725;50.836;4.368;2022-09-27T16:21:53;7.05;;;2.67;;
35602;SDS011;21725;50.836;4.368;2022-09-27T16:24:19;4.85;;;2.20;;
35602;SDS011;21725;50.836;4.368;2022-09-27T16:26:48;6.60;;;1.90;;
35602;SDS011;21725;50.836;4.368;2022-09-27T16:29:16;5.20;;;2.13;;
35602;SDS011;21725;50.836;4.368;2022-09-27T16:31:44;8.43;;;3.00;;
35602;SDS011;21725;50.836;4.368;2022-09-27T16:34:25;7.53;;;2.63;;
35602;SDS011;21725;50.836;4.368;2022-09-27T16:36:51;9.57;;;2.88;;
35602;SDS011;21725;50.836;4.368;2022-09-27T16:39:21;6.10;;;2.83;;
35602;SDS011;21725;50.836;4.368;2022-09-27T16:41:57;7.13;;;2.58;;
35602;SDS011;21725;50.836;4.368;2022-09-27T16:44:31;5.25;;;2.38;;
35602;SDS011;21725;50.836;4.368;2022-09-27T16:47:32;8.27;;;2.90;;
35602;SDS011;21725;50.836;4.368;2022-09-27T17:03:50;12.10;;;4.25;;
35602;SDS011;21725;50.836;4.368;2022-09-27T17:06:46;8.85;;;3.72;;
35602;SDS011;21725;50.836;4.368;2022-09-27T17:12:32;13.68;;;4.43;;
35602;SDS011;21725;50.836;4.368;2022-09-27T17:35:01;10.13;;;3.95;;
35602;SDS011;21725;50.836;4.368;2022-09-27T17:41:09;14.55;;;5.57;;
35602;SDS011;21725;50.836;4.368;2022-09-27T17:44:04;11.48;;;5.32;;
35602;SDS011;21725;50.836;4.368;2022-09-27T17:46:57;9.30;;;5.10;;
35602;SDS011;21725;50.836;4.368;2022-09-27T17:49:41;14.20;;;5.82;;
35602;SDS011;21725;50.836;4.368;2022-09-27T17:52:53;9.93;;;3.42;;
35602;SDS011;21725;50.836;4.368;2022-09-27T17:55:50;10.88;;;3.30;;
35602;SDS011;21725;50.836;4.368;2022-09-27T17:58:38;8.57;;;4.03;;
35602;SDS011;21725;50.836;4.368;2022-09-27T18:01:28;11.07;;;4.47;;
35602;SDS011;21725;50.836;4.368;2022-09-27T18:04:03;11.13;;;4.28;;
35602;SDS011;21725;50.836;4.368;2022-09-27T18:09:56;8.52;;;2.85;;
35602;SDS011;21725;50.836;4.368;2022-09-27T18:12:44;8.05;;;3.55;;
35602;SDS011;21725;50.836;4.368;2022-09-27T18:15:30;10.20;;;5.03;;
35602;SDS011;21725;50.836;4.368;2022-09-27T18:18:14;8.45;;;2.85;;
35602;SDS011;21725;50.836;4.368;2022-09-27T18:21:07;5.50;;;3.00;;
35602;SDS011;21725;50.836;4.368;2022-09-27T18:26:33;6.05;;;2.30;;
35602;SDS011;21725;50.836;4.368;2022-09-27T18:29:14;7.18;;;3.25;;
35602;SDS011;21725;50.836;4.368;2022-09-27T18:31:52;7.35;;;2.97;;
35602;SDS011;21725;50.836;4.368;2022-09-27T18:34:28;6.03;;;2.60;;
35602;SDS011;21725;50.836;4.368;2022-09-27T18:37:12;9.95;;;3.85;;
35602;SDS011;21725;50.836;4.368;2022-09-27T18:39:48;8.30;;;4.28;;
35602;SDS011;21725;50.836;4.368;2022-09-27T18:42:26;7.13;;;3.13;;
35602;SDS011;21725;50.836;4.368;2022-09-27T18:44:52;4.40;;;2.40;;
35602;SDS011;21725;50.836;4.368;2022-09-27T18:47:28;5.07;;;2.22;;
35602;SDS011;21725;50.836;4.368;2022-09-27T18:49:56;5.68;;;2.55;;
35602;SDS011;21725;50.836;4.368;2022-09-27T18:52:34;9.70;;;2.63;;
35602;SDS011;21725;50.836;4.368;2022-09-27T18:55:00;10.15;;;3.78;;
35602;SDS011;21725;50.836;4.368;2022-09-27T19:00:43;7.03;;;3.75;;
35602;SDS011;21725;50.836;4.368;2022-09-27T19:03:18;7.20;;;3.25;;
35602;SDS011;21725;50.836;4.368;2022-09-27T19:26:24;8.55;;;4.00;;
35602;SDS011;21725;50.836;4.368;2022-09-27T19:29:30;8.80;;;4.60;;
35602;SDS011;21725;50.836;4.368;2022-09-27T19:32:20;9.82;;;4.45;;
35602;SDS011;21725;50.836;4.368;2022-09-27T19:38:59;9.07;;;5.38;;
35602;SDS011;21725;50.836;4.368;2022-09-27T19:41:26;8.80;;;5.50;;
35602;SDS011;21725;50.836;4.368;2022-09-27T19:44:14;9.68;;;5.75;;
35602;SDS011;21725;50.836;4.368;2022-09-27T19:46:40;10.20;;;4.38;;
35602;SDS011;21725;50.836;4.368;2022-09-27T19:49:05;10.02;;;4.65;;
35602;SDS011;21725;50.836;4.368;2022-09-27T19:51:31;10.05;;;5.03;;
35602;SDS011;21725;50.836;4.368;2022-09-27T19:53:57;8.32;;;4.68;;
35602;SDS011;21725;50.836;4.368;2022-09-27T19:56:24;6.38;;;3.50;;
35602;SDS011;21725;50.836;4.368;2022-09-27T19:58:50;11.60;;;3.33;;
35602;SDS011;21725;50.836;4.368;2022-09-27T20:01:16;5.28;;;2.20;;
35602;SDS011;21725;50.836;4.368;2022-09-27T20:03:45;8.23;;;2.92;;
35602;SDS011;21725;50.836;4.368;2022-09-27T20:06:13;5.38;;;2.50;;
35602;SDS011;21725;50.836;4.368;2022-09-27T20:08:40;5.55;;;2.30;;
35602;SDS011;21725;50.836;4.368;2022-09-27T20:13:37;6.28;;;3.20;;
35602;SDS011;21725;50.836;4.368;2022-09-27T20:18:40;8.50;;;3.67;;
35602;SDS011;21725;50.836;4.368;2022-09-27T20:21:07;7.70;;;3.15;;
35602;SDS011;21725;50.836;4.368;2022-09-27T20:23:34;6.90;;;3.35;;
35602;SDS011;21725;50.836;4.368;2022-09-27T20:26:01;8.80;;;5.03;;
35602;SDS011;21725;50.836;4.368;2022-09-27T20:28:34;4.90;;;3.20;;
35602;SDS011;21725;50.836;4.368;2022-09-27T20:31:04;7.70;;;3.92;;
35602;SDS011;21725;50.836;4.368;2022-09-27T20:33:30;6.32;;;4.05;;
35602;SDS011;21725;50.836;4.368;2022-09-27T20:36:05;11.48;;;4.10;;
35602;SDS011;21725;50.836;4.368;2022-09-27T20:38:36;8.98;;;3.97;;
35602;SDS011;21725;50.836;4.368;2022-09-27T20:41:03;8.07;;;3.58;;
35602;SDS011;21725;50.836;4.368;2022-09-27T20:45:59;8.27;;;4.13;;
35602;SDS011;21725;50.836;4.368;2022-09-27T20:48:26;10.48;;;5.75;;
35602;SDS011;21725;50.836;4.368;2022-09-27T20:50:55;8.68;;;5.82;;
35602;SDS011;21725;50.836;4.368;2022-09-27T20:53:22;11.88;;;6.47;;
35602;SDS011;21725;50.836;4.368;2022-09-27T20:55:50;10.93;;;5.05;;
35602;SDS011;21725;50.836;4.368;2022-09-27T20:58:23;10.38;;;5.05;;
35602;SDS011;21725;50.836;4.368;2022-09-27T21:00:49;12.18;;;5.70;;
35602;SDS011;21725;50.836;4.368;2022-09-27T21:05:59;11.30;;;5.55;;
35602;SDS011;21725;50.836;4.368;2022-09-27T21:08:29;9.90;;;5.00;;
35602;SDS011;21725;50.836;4.368;2022-09-27T21:11:04;7.30;;;4.25;;
35602;SDS011;21725;50.836;4.368;2022-09-27T21:13:32;15.48;;;4.30;;
35602;SDS011;21725;50.836;4.368;2022-09-27T21:16:01;9.70;;;5.53;;
35602;SDS011;21725;50.836;4.368;2022-09-27T21:18:27;12.63;;;5.45;;
35602;SDS011;21725;50.836;4.368;2022-09-27T21:21:00;11.10;;;4.75;;
35602;SDS011;21725;50.836;4.368;2022-09-27T21:23:28;14.27;;;5.53;;
35602;SDS011;21725;50.836;4.368;2022-09-27T21:26:06;7.68;;;5.15;;
35602;SDS011;21725;50.836;4.368;2022-09-27T21:28:34;10.60;;;5.77;;
35602;SDS011;21725;50.836;4.368;2022-09-27T21:31:04;10.88;;;5.35;;
35602;SDS011;21725;50.836;4.368;2022-09-27T21:33:33;10.50;;;5.93;;
35602;SDS011;21725;50.836;4.368;2022-09-27T21:36:00;8.68;;;5.38;;
35602;SDS011;21725;50.836;4.368;2022-09-27T21:38:28;9.52;;;4.97;;
35602;SDS011;21725;50.836;4.368;2022-09-27T21:41:05;9.98;;;4.78;;
35602;SDS011;21725;50.836;4.368;2022-09-27T21:43:33;8.95;;;5.10;;